createdAt,value
2023-04-05T00:33:07.488Z,98293.59
2023-04-05T00:52:09.386Z,98293.63
2023-04-05T00:54:37.167Z,98294.50
2023-04-05T00:57:06.313Z,98286.78
2023-04-05T00:59:33.330Z,98289.41
2023-04-05T01:02:09.073Z,98296.22
2023-04-05T01:07:42.491Z,98291.06
2023-04-05T01:10:11.040Z,98280.13
2023-04-05T01:12:38.100Z,98284.28
2023-04-05T01:20:14.359Z,98285.19
2023-04-05T01:23:00.255Z,98270.13
2023-04-05T01:25:42.392Z,98286.16
2023-04-05T01:28:29.003Z,98274.16
2023-04-05T01:31:09.804Z,98277.66
2023-04-05T01:33:55.485Z,98261.34
2023-04-05T01:44:29.409Z,98262.97
2023-04-05T01:46:56.807Z,98268.06
2023-04-05T01:49:24.337Z,98272.28
2023-04-05T01:51:51.452Z,98268.13
2023-04-05T01:54:18.393Z,98263.91
2023-04-05T01:56:46.291Z,98265.63
2023-04-05T01:59:13.242Z,98262.16
2023-04-05T02:01:40.126Z,98264.63
2023-04-05T02:04:06.840Z,98271.31
2023-04-05T02:11:57.577Z,98271.25
2023-04-05T02:14:25.159Z,98270.97
2023-04-05T02:22:22.401Z,98268.03
2023-04-05T02:24:49.370Z,98268.09
2023-04-05T02:38:10.522Z,98272.44
2023-04-05T02:40:37.849Z,98269.09
2023-04-05T02:43:04.790Z,98278.19
2023-04-05T02:53:51.433Z,98267.44
2023-04-05T03:04:02.969Z,98263.78
2023-04-05T03:37:20.446Z,98265.78
2023-04-05T03:39:47.406Z,98264.94
2023-04-05T03:42:16.259Z,98276.41
2023-04-05T03:44:43.245Z,98279.75
2023-04-05T03:49:45.502Z,98274.94
2023-04-05T04:09:05.896Z,98279.78
2023-04-05T04:11:32.812Z,98280.72
2023-04-05T04:13:59.731Z,98280.59
2023-04-05T04:16:28.694Z,98279.56
2023-04-05T04:18:59.733Z,98260.69
2023-04-05T04:21:26.599Z,98280.72
2023-04-05T04:23:53.507Z,98283.75
2023-04-05T04:28:56.215Z,98272.81
2023-04-05T04:31:23.240Z,98275.53
2023-04-05T04:33:50.446Z,98280.97
2023-04-05T04:36:19.092Z,98286.13
2023-04-05T04:48:26.826Z,98280.47
2023-04-05T04:50:54.915Z,98288.13
2023-04-05T04:53:24.192Z,98281.25
2023-04-05T04:58:26.861Z,98284.69
2023-04-05T05:01:32.179Z,98272.53
2023-04-05T05:16:24.694Z,98287.50
2023-04-05T05:18:52.744Z,98286.94
2023-04-05T05:21:19.627Z,98276.06
2023-04-05T05:23:47.257Z,98282.00
2023-04-05T05:26:14.670Z,98285.41
2023-04-05T05:28:41.548Z,98278.69
2023-04-05T05:31:08.314Z,98284.59
2023-04-05T05:33:35.280Z,98288.81
2023-04-05T05:36:04.248Z,98286.22
2023-04-05T05:38:31.131Z,98288.34
2023-04-05T05:40:58.142Z,98286.59
2023-04-05T05:43:25.124Z,98286.66
2023-04-05T05:45:52.020Z,98294.16
2023-04-05T05:48:18.890Z,98291.94
2023-04-05T05:50:48.848Z,98291.22
2023-04-05T05:53:16.570Z,98298.44
2023-04-05T05:55:43.586Z,98293.81
2023-04-05T05:58:10.308Z,98299.53
2023-04-05T06:00:43.195Z,98297.84
2023-04-05T06:03:11.055Z,98286.97
2023-04-05T06:05:37.978Z,98290.22
2023-04-05T06:08:04.896Z,98284.31
2023-04-05T06:10:31.818Z,98283.97
2023-04-05T06:12:58.818Z,98286.50
2023-04-05T06:15:25.824Z,98285.37
2023-04-05T06:17:52.761Z,98279.37
2023-04-05T06:20:19.724Z,98287.47
2023-04-05T06:22:46.672Z,98281.50
2023-04-05T06:25:13.841Z,98289.22
2023-04-05T06:27:41.335Z,98282.81
2023-04-05T06:30:08.682Z,98279.50
2023-04-05T06:32:35.788Z,98282.00
2023-04-05T06:35:04.134Z,98280.19
2023-04-05T06:37:31.561Z,98275.94
2023-04-05T06:39:59.557Z,98274.88
2023-04-05T06:42:27.907Z,98281.41
2023-04-05T06:44:55.363Z,98283.06
2023-04-05T06:47:22.236Z,98275.31
2023-04-05T06:49:48.891Z,98285.72
2023-04-05T06:52:15.774Z,98286.50
2023-04-05T06:54:42.618Z,98278.19
2023-04-05T06:57:09.297Z,98280.28
2023-04-05T06:59:37.175Z,98280.91
2023-04-05T07:02:04.126Z,98265.72
2023-04-05T07:04:35.701Z,98269.88
2023-04-05T07:07:03.767Z,98269.28
2023-04-05T07:09:32.869Z,98277.31
2023-04-05T07:12:01.558Z,98271.37
2023-04-05T07:14:30.530Z,98275.59
2023-04-05T07:16:57.555Z,98275.69
2023-04-05T07:19:24.535Z,98277.53
2023-04-05T07:21:51.406Z,98277.38
2023-04-05T07:24:18.137Z,98282.28
2023-04-05T07:26:45.310Z,98279.97
2023-04-05T07:29:13.123Z,98281.84
2023-04-05T07:31:42.931Z,98279.50
2023-04-05T07:34:09.976Z,98284.78
2023-04-05T07:36:38.039Z,98282.31
2023-04-05T07:39:05.518Z,98287.72
2023-04-05T07:41:32.498Z,98285.78
2023-04-05T07:43:59.375Z,98287.88
2023-04-05T07:46:27.424Z,98284.94
2023-04-05T07:48:54.497Z,98285.97
2023-04-05T07:51:21.458Z,98291.22
2023-04-05T07:53:49.043Z,98287.69
2023-04-05T07:56:16.417Z,98285.47
2023-04-05T07:58:43.352Z,98285.91
2023-04-05T08:01:11.355Z,98288.66
2023-04-05T08:03:40.071Z,98282.62
2023-04-05T08:06:19.616Z,98287.03
2023-04-05T08:08:47.458Z,98272.88
2023-04-05T08:11:14.353Z,98278.56
2023-04-05T08:13:42.020Z,98280.50
2023-04-05T08:16:09.930Z,98284.00
2023-04-05T08:18:37.118Z,98286.84
2023-04-05T08:21:04.311Z,98291.09
2023-04-05T08:23:32.136Z,98287.16
2023-04-05T08:25:59.011Z,98282.91
2023-04-05T08:28:26.039Z,98290.12
2023-04-05T08:30:56.700Z,98272.97
2023-04-05T08:33:24.356Z,98287.25
2023-04-05T08:35:51.673Z,98287.59
2023-04-05T08:38:18.674Z,98282.81
2023-04-05T08:40:47.532Z,98284.34
2023-04-05T08:43:26.120Z,98288.59
2023-04-05T08:45:53.707Z,98283.31
2023-04-05T08:48:20.883Z,98284.63
2023-04-05T08:50:54.482Z,98277.81
2023-04-05T08:53:22.095Z,98276.56
2023-04-05T08:55:56.634Z,98266.59
2023-04-05T08:58:24.809Z,98289.19
2023-04-05T09:00:52.328Z,98276.06
2023-04-05T09:03:24.007Z,98276.59
2023-04-05T09:05:52.121Z,98271.13
2023-04-05T09:08:21.503Z,98276.81
2023-04-05T09:10:51.741Z,98282.47
2023-04-05T09:13:19.201Z,98277.38
2023-04-05T09:15:46.972Z,98287.19
2023-04-05T09:18:25.400Z,98277.69
2023-04-05T09:21:02.044Z,98280.25
2023-04-05T09:23:29.299Z,98285.09
2023-04-05T09:25:56.248Z,98274.53
2023-04-05T09:28:23.172Z,98273.34
2023-04-05T09:30:50.101Z,98268.75
2023-04-05T09:33:22.538Z,98269.66
2023-04-05T09:35:51.768Z,98277.06
2023-04-05T09:38:18.748Z,98266.50
2023-04-05T09:40:49.907Z,98264.44
2023-04-05T09:43:39.174Z,98273.72
2023-04-05T09:46:06.176Z,98268.78
2023-04-05T09:53:37.950Z,98265.50
2023-04-05T09:56:13.817Z,98261.63
2023-04-05T09:58:40.762Z,98255.69
2023-04-05T10:03:48.433Z,98257.31
2023-04-05T10:06:19.007Z,98250.44
2023-04-05T10:08:49.327Z,98249.75
2023-04-05T10:11:18.937Z,98244.41
2023-04-05T10:13:46.243Z,98248.69
2023-04-05T10:16:17.460Z,98245.66
2023-04-05T10:18:49.869Z,98235.09
2023-04-05T10:21:21.584Z,98237.09
2023-04-05T10:23:56.330Z,98233.37
2023-04-05T10:26:39.124Z,98229.69
2023-04-05T10:29:12.760Z,98233.44
2023-04-05T10:31:55.916Z,98240.31
2023-04-05T10:34:32.458Z,98241.97
2023-04-05T10:37:02.091Z,98238.63
2023-04-05T10:39:35.831Z,98234.94
2023-04-05T10:42:10.435Z,98231.28
2023-04-05T10:44:37.902Z,98231.84
2023-04-05T10:47:06.062Z,98236.06
2023-04-05T10:49:54.136Z,98234.22
2023-04-05T10:52:22.405Z,98225.22
2023-04-05T10:54:49.880Z,98225.22
2023-04-05T10:57:19.743Z,98227.13
2023-04-05T10:59:47.363Z,98224.47
2023-04-05T11:02:14.779Z,98218.25
2023-04-05T11:04:42.711Z,98219.16
2023-04-05T11:07:19.842Z,98214.50
2023-04-05T11:10:00.422Z,98208.47
2023-04-05T11:12:46.223Z,98211.09
2023-04-05T11:15:28.188Z,98218.88
2023-04-05T11:18:04.453Z,98215.03
2023-04-05T11:20:56.403Z,98209.47
2023-04-05T11:23:25.280Z,98211.22
2023-04-05T11:26:06.699Z,98218.41
2023-04-05T11:28:39.651Z,98208.94
2023-04-05T11:31:19.966Z,98201.19
2023-04-05T11:34:10.056Z,98206.12
2023-04-05T11:36:38.599Z,98207.19
2023-04-05T11:39:23.785Z,98205.41
2023-04-05T11:42:05.019Z,98204.50
2023-04-05T11:44:49.356Z,98192.59
2023-04-05T11:47:23.192Z,98189.19
2023-04-05T11:49:51.357Z,98198.66
2023-04-05T11:52:20.780Z,98203.16
2023-04-05T11:54:49.158Z,98198.41
2023-04-05T11:57:20.072Z,98199.50
2023-04-05T11:59:47.053Z,98191.09
2023-04-05T12:02:13.931Z,98200.25
2023-04-05T12:04:40.892Z,98194.31
2023-04-05T12:07:17.981Z,98194.84
2023-04-05T12:10:16.239Z,98182.25
2023-04-05T12:12:45.202Z,98182.25
2023-04-05T12:15:14.846Z,98182.88
2023-04-05T12:17:44.202Z,98190.12
2023-04-05T12:20:13.087Z,98188.56
2023-04-05T12:22:42.179Z,98181.69
2023-04-05T12:25:09.779Z,98184.03
2023-04-05T12:27:36.987Z,98173.69
2023-04-05T12:30:07.999Z,98174.88
2023-04-05T12:32:51.420Z,98170.97
2023-04-05T12:35:22.665Z,98168.78
2023-04-05T12:37:51.061Z,98165.53
2023-04-05T12:40:23.106Z,98166.91
2023-04-05T12:42:50.566Z,98162.81
2023-04-05T12:45:18.726Z,98158.75
2023-04-05T12:47:58.269Z,98155.78
2023-04-05T12:50:31.875Z,98151.56
2023-04-05T12:53:05.813Z,98146.53
2023-04-05T12:55:33.197Z,98155.87
2023-04-05T12:58:01.926Z,98146.47
2023-04-05T13:00:29.862Z,98145.41
2023-04-05T13:02:58.365Z,98150.19
2023-04-05T13:05:27.604Z,98141.97
2023-04-05T13:07:54.687Z,98145.03
2023-04-05T13:10:23.755Z,98137.56
2023-04-05T13:12:50.852Z,98136.69
2023-04-05T13:15:18.416Z,98134.22
2023-04-05T13:17:45.997Z,98130.81
2023-04-05T13:20:12.984Z,98129.31
2023-04-05T13:22:40.021Z,98124.97
2023-04-05T13:25:07.309Z,98120.44
2023-04-05T13:27:34.221Z,98125.87
2023-04-05T13:30:01.081Z,98117.47
2023-04-05T13:32:27.791Z,98116.88
2023-04-05T13:34:54.680Z,98120.78
2023-04-05T13:37:21.355Z,98119.66
2023-04-05T13:39:48.240Z,98118.63
2023-04-05T13:42:15.167Z,98116.56
2023-04-05T13:44:42.038Z,98116.50
2023-04-05T13:47:09.305Z,98122.38
2023-04-05T13:49:36.344Z,98118.63
2023-04-05T13:52:03.255Z,98114.78
2023-04-05T13:54:30.098Z,98101.91
2023-04-05T13:56:57.270Z,98097.22
2023-04-05T13:59:24.186Z,98110.03
2023-04-05T14:01:51.388Z,98105.53
2023-04-05T14:04:18.421Z,98105.84
2023-04-05T14:06:45.477Z,98106.50
2023-04-05T14:09:12.497Z,98103.78
2023-04-05T14:11:39.476Z,98111.09
2023-04-05T14:14:07.065Z,98104.38
2023-04-05T14:16:34.264Z,98110.34
2023-04-05T14:19:01.219Z,98114.47
2023-04-05T14:21:28.151Z,98112.72
2023-04-05T14:23:57.254Z,98110.31
2023-04-05T14:26:26.316Z,98101.34
2023-04-05T14:28:53.934Z,98115.38
2023-04-05T14:31:20.931Z,98103.75
2023-04-05T14:33:47.858Z,98100.38
2023-04-05T14:36:14.565Z,98101.69
2023-04-05T14:38:41.540Z,98102.16
2023-04-05T14:41:08.657Z,98105.13
2023-04-05T14:43:35.894Z,98100.47
2023-04-05T14:46:02.900Z,98093.53
2023-04-05T14:48:31.992Z,98103.03
2023-04-05T14:50:59.335Z,98105.53
2023-04-05T14:53:26.364Z,98101.63
2023-04-05T14:55:53.255Z,98095.94
2023-04-05T14:58:21.340Z,98105.06
2023-04-05T15:00:52.094Z,98109.34
2023-04-05T15:03:19.864Z,98101.75
2023-04-05T15:05:47.678Z,98099.78
2023-04-05T15:08:15.717Z,98107.78
2023-04-05T15:10:43.374Z,98109.00
2023-04-05T15:13:10.739Z,98112.56
2023-04-05T15:15:38.039Z,98117.09
2023-04-05T15:18:05.534Z,98117.16
2023-04-05T15:20:33.084Z,98117.87
2023-04-05T15:23:00.603Z,98125.41
2023-04-05T15:25:27.456Z,98116.16
2023-04-05T15:27:55.027Z,98119.81
2023-04-05T15:30:22.248Z,98124.25
2023-04-05T15:32:49.225Z,98117.00
2023-04-05T15:35:16.435Z,98122.72
2023-04-05T15:37:43.475Z,98137.47
2023-04-05T15:40:10.828Z,98125.91
2023-04-05T15:42:37.785Z,98132.09
2023-04-05T15:45:05.229Z,98129.31
2023-04-05T15:47:32.166Z,98130.94
2023-04-05T15:49:59.105Z,98122.72
2023-04-05T15:52:26.130Z,98122.25
2023-04-05T15:54:53.029Z,98120.16
2023-04-05T15:57:19.944Z,98112.16
2023-04-05T15:59:46.917Z,98126.59
2023-04-05T16:02:13.978Z,98128.75
2023-04-05T16:04:41.000Z,98119.25
2023-04-05T16:07:09.082Z,98131.97
2023-04-05T16:09:35.976Z,98133.53
2023-04-05T16:12:02.632Z,98128.34
2023-04-05T16:14:29.598Z,98126.28
2023-04-05T16:16:56.860Z,98121.88
2023-04-05T16:19:24.133Z,98116.66
2023-04-05T16:21:52.867Z,98122.62
2023-04-05T16:24:20.232Z,98133.94
2023-04-05T16:26:47.108Z,98136.31
2023-04-05T16:29:13.841Z,98137.78
2023-04-05T16:31:40.938Z,98132.84
2023-04-05T16:34:08.268Z,98129.75
2023-04-05T16:36:35.189Z,98129.88
2023-04-05T16:39:02.470Z,98131.31
2023-04-05T16:41:29.593Z,98130.88
2023-04-05T16:43:56.489Z,98121.22
2023-04-05T16:46:23.418Z,98132.66
2023-04-05T16:48:50.544Z,98140.78
2023-04-05T16:51:17.538Z,98141.75
2023-04-05T16:53:44.472Z,98143.34
2023-04-05T16:56:11.466Z,98142.53
2023-04-05T16:58:38.400Z,98143.56
2023-04-05T17:01:05.931Z,98152.84
2023-04-05T17:03:33.000Z,98147.16
2023-04-05T17:05:59.979Z,98149.53
2023-04-05T17:08:27.205Z,98148.19
2023-04-05T17:10:54.218Z,98148.66
2023-04-05T17:13:21.286Z,98150.09
2023-04-05T17:15:49.386Z,98148.78
2023-04-05T17:18:16.443Z,98153.31
2023-04-05T17:20:43.388Z,98156.72
2023-04-05T17:23:10.367Z,98155.78
2023-04-05T17:25:37.316Z,98157.47
2023-04-05T17:28:04.331Z,98154.13
2023-04-05T17:30:31.936Z,98156.13
2023-04-05T17:32:58.992Z,98158.38
2023-04-05T17:35:26.039Z,98161.94
2023-04-05T17:37:53.221Z,98156.47
2023-04-05T17:40:20.135Z,98160.44
2023-04-05T17:42:47.000Z,98163.16
2023-04-05T17:45:13.709Z,98172.59
2023-04-05T17:47:40.755Z,98166.03
2023-04-05T17:50:08.084Z,98168.84
2023-04-05T17:52:34.992Z,98168.66
2023-04-05T17:55:01.939Z,98180.13
2023-04-05T17:57:28.884Z,98175.94
2023-04-05T17:59:57.538Z,98181.22
2023-04-05T18:02:24.483Z,98185.38
2023-04-05T18:04:51.413Z,98187.75
2023-04-05T18:07:18.303Z,98191.53
2023-04-05T18:09:45.207Z,98191.03
2023-04-05T18:12:12.307Z,98195.81
2023-04-05T18:14:39.205Z,98194.19
2023-04-05T18:17:07.585Z,98203.22
2023-04-05T18:19:34.730Z,98197.91
2023-04-05T18:22:01.707Z,98205.34
2023-04-05T18:24:29.633Z,98206.31
2023-04-05T18:26:57.607Z,98216.56
2023-04-05T18:29:30.897Z,98215.34
2023-04-05T18:31:58.060Z,98214.53
2023-04-05T18:34:25.168Z,98218.16
2023-04-05T18:36:52.112Z,98209.81
2023-04-05T18:39:20.325Z,98217.28
2023-04-05T18:41:47.677Z,98214.00
2023-04-05T18:44:14.645Z,98223.75
2023-04-05T18:46:41.787Z,98215.69
2023-04-05T18:49:09.084Z,98219.31
2023-04-05T18:51:36.325Z,98227.09
2023-04-05T18:54:03.585Z,98228.03
2023-04-05T18:56:30.493Z,98223.56
2023-04-05T18:58:57.484Z,98229.81
2023-04-05T19:01:24.621Z,98236.97
2023-04-05T19:03:51.635Z,98232.16
2023-04-05T19:06:18.707Z,98235.91
2023-04-05T19:08:48.165Z,98232.87
2023-04-05T19:11:15.210Z,98228.28
2023-04-05T19:13:42.275Z,98236.25
2023-04-05T19:16:09.343Z,98238.88
2023-04-05T19:18:36.319Z,98231.78
2023-04-05T19:21:03.285Z,98232.81
2023-04-05T19:23:30.630Z,98230.06
2023-04-05T19:25:58.150Z,98222.47
2023-04-05T19:28:26.137Z,98225.66
2023-04-05T19:30:53.727Z,98228.75
2023-04-05T19:33:21.818Z,98230.50
2023-04-05T19:35:49.291Z,98240.69
2023-04-05T19:38:16.455Z,98232.94
2023-04-05T19:40:43.462Z,98235.72
2023-04-05T19:43:11.624Z,98245.41
2023-04-05T19:45:38.628Z,98246.00
2023-04-05T19:48:31.399Z,98238.16
2023-04-05T19:51:00.215Z,98239.13
2023-04-05T19:53:32.112Z,98246.13
2023-04-05T19:55:58.994Z,98240.81
2023-04-05T19:58:28.561Z,98245.75
2023-04-05T20:00:55.814Z,98247.75
2023-04-05T20:03:34.029Z,98243.88
2023-04-05T20:06:06.345Z,98235.09
2023-04-05T20:08:35.253Z,98232.06
2023-04-05T20:11:05.760Z,98243.47
2023-04-05T20:13:33.016Z,98232.41
2023-04-05T20:16:00.173Z,98234.03
2023-04-05T20:18:27.484Z,98235.84
2023-04-05T20:20:54.792Z,98237.78
2023-04-05T20:23:22.920Z,98237.94
2023-04-05T20:25:50.830Z,98236.69
2023-04-05T20:28:38.405Z,98240.28
2023-04-05T20:31:08.039Z,98234.56
2023-04-05T20:33:53.489Z,98233.63
2023-04-05T20:36:22.658Z,98232.97
2023-04-05T20:38:50.533Z,98230.06
2023-04-05T20:41:18.837Z,98230.16
2023-04-05T20:43:46.056Z,98235.28
2023-04-05T20:46:13.106Z,98236.50
2023-04-05T20:48:40.079Z,98232.69
2023-04-05T20:51:08.099Z,98237.78
2023-04-05T20:53:36.473Z,98231.97
2023-04-05T20:56:04.950Z,98232.87
2023-04-05T20:58:31.901Z,98230.72
2023-04-05T21:01:02.973Z,98233.66
2023-04-05T21:03:34.234Z,98227.22
2023-04-05T21:06:01.949Z,98231.16
2023-04-05T21:08:30.106Z,98226.72
2023-04-05T21:10:58.876Z,98232.56
2023-04-05T21:13:25.862Z,98230.38
2023-04-05T21:15:56.568Z,98236.72
2023-04-05T21:18:24.656Z,98234.97
2023-04-05T21:20:53.051Z,98235.78
2023-04-05T21:23:23.960Z,98229.16
2023-04-05T21:25:50.843Z,98229.84
2023-04-05T21:28:17.756Z,98231.22
2023-04-05T21:30:45.079Z,98232.69
2023-04-05T21:33:12.686Z,98234.50
2023-04-05T21:35:39.886Z,98239.34
2023-04-05T21:38:07.033Z,98237.16
2023-04-05T21:40:34.031Z,98235.47
2023-04-05T21:43:00.989Z,98230.28
2023-04-05T21:45:27.950Z,98221.91
2023-04-05T21:47:54.717Z,98228.19
2023-04-05T21:50:21.809Z,98227.31
2023-04-05T21:52:48.829Z,98226.00
2023-04-05T21:55:15.988Z,98230.00
2023-04-05T21:57:42.850Z,98226.03
2023-04-05T22:00:12.192Z,98218.41
2023-04-05T22:02:39.799Z,98231.13
2023-04-05T22:05:08.150Z,98223.63
2023-04-05T22:07:36.042Z,98224.47
2023-04-05T22:10:03.420Z,98225.31
2023-04-05T22:12:30.781Z,98221.91
2023-04-05T22:14:57.712Z,98218.13
2023-04-05T22:17:24.637Z,98216.97
2023-04-05T22:19:51.603Z,98219.53
2023-04-05T22:22:19.709Z,98220.47
2023-04-05T22:24:47.544Z,98217.06
2023-04-05T22:27:14.450Z,98222.09
2023-04-05T22:29:41.390Z,98215.38
2023-04-05T22:32:08.350Z,98220.28
2023-04-05T22:34:35.583Z,98216.81
2023-04-05T22:37:02.562Z,98216.84
2023-04-05T22:39:29.473Z,98218.56
2023-04-05T22:41:56.837Z,98217.84
2023-04-05T22:44:24.701Z,98211.22
2023-04-05T22:46:51.715Z,98216.13
2023-04-05T22:49:18.651Z,98214.72
2023-04-05T22:51:45.566Z,98210.06
2023-04-05T22:54:12.320Z,98206.88
2023-04-05T22:56:39.193Z,98208.47
2023-04-05T22:59:06.490Z,98208.63
2023-04-05T23:01:33.956Z,98198.22
2023-04-05T23:04:01.005Z,98204.31
2023-04-05T23:06:27.951Z,98205.84
2023-04-05T23:08:54.875Z,98190.91
2023-04-05T23:11:21.644Z,98208.47
2023-04-05T23:13:48.663Z,98201.69
2023-04-05T23:16:15.811Z,98199.34
2023-04-05T23:18:42.622Z,98196.75
2023-04-05T23:21:09.369Z,98193.34
2023-04-05T23:23:36.135Z,98185.84
2023-04-05T23:26:02.864Z,98182.53
2023-04-05T23:28:29.568Z,98191.72
2023-04-05T23:30:56.242Z,98197.03
2023-04-05T23:33:22.954Z,98194.69
2023-04-05T23:35:49.887Z,98198.03
2023-04-05T23:38:16.744Z,98191.09
2023-04-05T23:40:43.420Z,98188.47
2023-04-05T23:43:11.030Z,98193.41
2023-04-05T23:45:37.750Z,98185.09
2023-04-05T23:48:04.549Z,98187.22
2023-04-05T23:50:31.365Z,98184.03
2023-04-05T23:52:58.200Z,98180.16
2023-04-05T23:55:24.929Z,98174.03
2023-04-05T23:57:52.386Z,98179.13
